Terminal Aerodrome Forecast
Issued by NWS Wilmington, NC

Home | Current Version | Previous Version | Text Only | Print | Product List | Glossary On
Versions: 1 2 3 4 5 6 7 8 9 10 11 12 13 14 15 16 17 18
000
FTUS42 KILM 032334
TAFMYR
TAF
KMYR 032334Z 0400/0424 17008KT P6SM VCSH SCT020
     FM040500 18009KT 6SM -SHRA SCT025 SCT060 BKN120
     FM041200 18011KT 4SM SHRA BKN020 OVC050
      TEMPO 0413/0417 2SM TSRA BKN020CB
     FM042000 VRB05KT P6SM VCSH BKN050=

USA.gov is the U.S. government's official web portal to all federal, state and local government web resources and services.